sensor_id;sensor_type;location;lat;lon;timestamp;P1;durP1;ratioP1;P2;durP2;ratioP2
12884;SDS011;6510;51.362;7.370;2023-05-07T00:01:11;0.00;;;0.00;;
12884;SDS011;6510;51.362;7.370;2023-05-07T00:03:36;0.00;;;0.00;;
12884;SDS011;6510;51.362;7.370;2023-05-07T00:06:02;0.00;;;0.00;;
12884;SDS011;6510;51.362;7.370;2023-05-07T00:08:28;0.00;;;0.00;;
12884;SDS011;6510;51.362;7.370;2023-05-07T00:10:54;0.00;;;0.00;;
12884;SDS011;6510;51.362;7.370;2023-05-07T00:13:19;0.00;;;0.00;;
12884;SDS011;6510;51.362;7.370;2023-05-07T00:15:45;0.03;;;0.03;;
12884;SDS011;6510;51.362;7.370;2023-05-07T00:18:11;0.00;;;0.00;;
12884;SDS011;6510;51.362;7.370;2023-05-07T00:20:36;0.00;;;0.00;;
12884;SDS011;6510;51.362;7.370;2023-05-07T00:23:02;0.10;;;0.10;;
12884;SDS011;6510;51.362;7.370;2023-05-07T00:25:28;0.00;;;0.00;;
12884;SDS011;6510;51.362;7.370;2023-05-07T00:27:53;0.10;;;0.10;;
12884;SDS011;6510;51.362;7.370;2023-05-07T00:30:19;0.00;;;0.00;;
12884;SDS011;6510;51.362;7.370;2023-05-07T00:32:45;0.00;;;0.00;;
12884;SDS011;6510;51.362;7.370;2023-05-07T00:35:11;0.00;;;0.00;;
12884;SDS011;6510;51.362;7.370;2023-05-07T00:37:37;0.00;;;0.00;;
12884;SDS011;6510;51.362;7.370;2023-05-07T00:40:03;0.00;;;0.00;;
12884;SDS011;6510;51.362;7.370;2023-05-07T00:42:32;0.00;;;0.00;;
12884;SDS011;6510;51.362;7.370;2023-05-07T00:44:58;0.10;;;0.10;;
12884;SDS011;6510;51.362;7.370;2023-05-07T00:47:23;0.00;;;0.00;;
12884;SDS011;6510;51.362;7.370;2023-05-07T00:49:50;0.00;;;0.00;;
12884;SDS011;6510;51.362;7.370;2023-05-07T00:52:17;0.00;;;0.00;;
12884;SDS011;6510;51.362;7.370;2023-05-07T00:54:44;0.00;;;0.00;;
12884;SDS011;6510;51.362;7.370;2023-05-07T00:57:10;0.00;;;0.00;;
12884;SDS011;6510;51.362;7.370;2023-05-07T00:59:36;0.00;;;0.00;;
12884;SDS011;6510;51.362;7.370;2023-05-07T01:02:02;0.10;;;0.10;;
12884;SDS011;6510;51.362;7.370;2023-05-07T01:04:28;0.00;;;0.00;;
12884;SDS011;6510;51.362;7.370;2023-05-07T01:06:55;0.00;;;0.00;;
12884;SDS011;6510;51.362;7.370;2023-05-07T01:09:23;0.00;;;0.00;;
12884;SDS011;6510;51.362;7.370;2023-05-07T01:11:50;0.10;;;0.10;;
12884;SDS011;6510;51.362;7.370;2023-05-07T01:14:16;0.00;;;0.00;;
12884;SDS011;6510;51.362;7.370;2023-05-07T01:16:42;0.00;;;0.00;;
12884;SDS011;6510;51.362;7.370;2023-05-07T01:19:08;0.00;;;0.00;;
12884;SDS011;6510;51.362;7.370;2023-05-07T01:21:36;0.00;;;0.00;;
12884;SDS011;6510;51.362;7.370;2023-05-07T01:24:03;0.00;;;0.00;;
12884;SDS011;6510;51.362;7.370;2023-05-07T01:26:30;0.00;;;0.00;;
12884;SDS011;6510;51.362;7.370;2023-05-07T01:28:56;0.00;;;0.00;;
12884;SDS011;6510;51.362;7.370;2023-05-07T01:31:21;0.00;;;0.00;;
12884;SDS011;6510;51.362;7.370;2023-05-07T01:33:52;0.00;;;0.00;;
12884;SDS011;6510;51.362;7.370;2023-05-07T01:36:18;0.00;;;0.00;;
12884;SDS011;6510;51.362;7.370;2023-05-07T01:38:48;0.00;;;0.00;;
12884;SDS011;6510;51.362;7.370;2023-05-07T01:41:14;0.00;;;0.00;;
12884;SDS011;6510;51.362;7.370;2023-05-07T01:43:41;0.00;;;0.00;;
12884;SDS011;6510;51.362;7.370;2023-05-07T01:46:07;0.00;;;0.00;;
12884;SDS011;6510;51.362;7.370;2023-05-07T01:48:35;0.00;;;0.00;;
12884;SDS011;6510;51.362;7.370;2023-05-07T01:51:00;0.00;;;0.00;;
12884;SDS011;6510;51.362;7.370;2023-05-07T01:53:27;0.00;;;0.00;;
12884;SDS011;6510;51.362;7.370;2023-05-07T01:55:53;0.00;;;0.00;;
12884;SDS011;6510;51.362;7.370;2023-05-07T01:58:19;0.00;;;0.00;;
12884;SDS011;6510;51.362;7.370;2023-05-07T02:00:44;0.00;;;0.00;;
12884;SDS011;6510;51.362;7.370;2023-05-07T02:03:10;0.00;;;0.00;;
12884;SDS011;6510;51.362;7.370;2023-05-07T02:05:36;0.00;;;0.00;;
12884;SDS011;6510;51.362;7.370;2023-05-07T02:08:01;0.00;;;0.00;;
12884;SDS011;6510;51.362;7.370;2023-05-07T02:10:27;0.00;;;0.00;;
12884;SDS011;6510;51.362;7.370;2023-05-07T02:12:53;0.00;;;0.00;;
12884;SDS011;6510;51.362;7.370;2023-05-07T02:15:18;0.00;;;0.00;;
12884;SDS011;6510;51.362;7.370;2023-05-07T02:20:26;0.00;;;0.00;;
12884;SDS011;6510;51.362;7.370;2023-05-07T02:22:52;0.00;;;0.00;;
12884;SDS011;6510;51.362;7.370;2023-05-07T02:25:18;0.00;;;0.00;;
12884;SDS011;6510;51.362;7.370;2023-05-07T02:27:43;0.00;;;0.00;;
12884;SDS011;6510;51.362;7.370;2023-05-07T02:30:09;0.00;;;0.00;;
12884;SDS011;6510;51.362;7.370;2023-05-07T02:32:35;0.00;;;0.00;;
12884;SDS011;6510;51.362;7.370;2023-05-07T02:35:00;0.00;;;0.00;;
12884;SDS011;6510;51.362;7.370;2023-05-07T02:37:26;0.00;;;0.00;;
12884;SDS011;6510;51.362;7.370;2023-05-07T02:39:52;0.00;;;0.00;;
12884;SDS011;6510;51.362;7.370;2023-05-07T02:42:17;0.00;;;0.00;;
12884;SDS011;6510;51.362;7.370;2023-05-07T02:44:43;0.00;;;0.00;;
12884;SDS011;6510;51.362;7.370;2023-05-07T02:47:08;0.00;;;0.00;;
12884;SDS011;6510;51.362;7.370;2023-05-07T02:49:35;0.00;;;0.00;;
12884;SDS011;6510;51.362;7.370;2023-05-07T02:52:00;0.00;;;0.00;;
12884;SDS011;6510;51.362;7.370;2023-05-07T02:54:26;0.00;;;0.00;;
12884;SDS011;6510;51.362;7.370;2023-05-07T02:56:52;0.00;;;0.00;;
12884;SDS011;6510;51.362;7.370;2023-05-07T02:59:17;0.00;;;0.00;;
12884;SDS011;6510;51.362;7.370;2023-05-07T03:01:43;0.00;;;0.00;;
12884;SDS011;6510;51.362;7.370;2023-05-07T03:04:10;0.00;;;0.00;;
12884;SDS011;6510;51.362;7.370;2023-05-07T03:06:36;0.00;;;0.00;;
12884;SDS011;6510;51.362;7.370;2023-05-07T03:09:01;0.00;;;0.00;;
12884;SDS011;6510;51.362;7.370;2023-05-07T03:11:27;0.00;;;0.00;;
12884;SDS011;6510;51.362;7.370;2023-05-07T03:13:53;0.00;;;0.00;;
12884;SDS011;6510;51.362;7.370;2023-05-07T03:16:19;0.00;;;0.00;;
12884;SDS011;6510;51.362;7.370;2023-05-07T03:18:45;0.00;;;0.00;;
12884;SDS011;6510;51.362;7.370;2023-05-07T03:21:10;0.00;;;0.00;;
12884;SDS011;6510;51.362;7.370;2023-05-07T03:23:36;0.00;;;0.00;;
12884;SDS011;6510;51.362;7.370;2023-05-07T03:26:02;0.00;;;0.00;;
12884;SDS011;6510;51.362;7.370;2023-05-07T03:28:27;0.00;;;0.00;;
12884;SDS011;6510;51.362;7.370;2023-05-07T03:30:53;0.00;;;0.00;;
12884;SDS011;6510;51.362;7.370;2023-05-07T03:33:18;0.00;;;0.00;;
12884;SDS011;6510;51.362;7.370;2023-05-07T03:35:44;0.00;;;0.00;;
12884;SDS011;6510;51.362;7.370;2023-05-07T03:38:10;0.00;;;0.00;;
12884;SDS011;6510;51.362;7.370;2023-05-07T03:40:35;0.00;;;0.00;;
12884;SDS011;6510;51.362;7.370;2023-05-07T03:43:01;0.00;;;0.00;;
12884;SDS011;6510;51.362;7.370;2023-05-07T03:45:27;0.00;;;0.00;;
12884;SDS011;6510;51.362;7.370;2023-05-07T03:47:52;0.00;;;0.00;;
12884;SDS011;6510;51.362;7.370;2023-05-07T03:50:18;0.00;;;0.00;;
12884;SDS011;6510;51.362;7.370;2023-05-07T03:52:44;0.00;;;0.00;;
12884;SDS011;6510;51.362;7.370;2023-05-07T03:55:10;0.00;;;0.00;;
12884;SDS011;6510;51.362;7.370;2023-05-07T03:57:35;0.00;;;0.00;;
12884;SDS011;6510;51.362;7.370;2023-05-07T04:00:01;0.00;;;0.00;;
12884;SDS011;6510;51.362;7.370;2023-05-07T04:02:28;0.00;;;0.00;;
12884;SDS011;6510;51.362;7.370;2023-05-07T04:04:54;0.00;;;0.00;;
12884;SDS011;6510;51.362;7.370;2023-05-07T04:07:19;0.00;;;0.00;;
12884;SDS011;6510;51.362;7.370;2023-05-07T04:09:45;0.10;;;0.10;;
12884;SDS011;6510;51.362;7.370;2023-05-07T04:12:11;0.00;;;0.00;;
12884;SDS011;6510;51.362;7.370;2023-05-07T04:14:36;0.00;;;0.00;;
12884;SDS011;6510;51.362;7.370;2023-05-07T04:17:02;0.00;;;0.00;;
12884;SDS011;6510;51.362;7.370;2023-05-07T04:19:27;0.00;;;0.00;;
12884;SDS011;6510;51.362;7.370;2023-05-07T04:21:53;0.00;;;0.00;;
12884;SDS011;6510;51.362;7.370;2023-05-07T04:24:19;0.00;;;0.00;;
12884;SDS011;6510;51.362;7.370;2023-05-07T04:26:45;0.00;;;0.00;;
12884;SDS011;6510;51.362;7.370;2023-05-07T04:29:10;0.00;;;0.00;;
12884;SDS011;6510;51.362;7.370;2023-05-07T04:31:36;0.00;;;0.00;;
12884;SDS011;6510;51.362;7.370;2023-05-07T04:34:02;0.00;;;0.00;;
12884;SDS011;6510;51.362;7.370;2023-05-07T04:36:27;0.00;;;0.00;;
12884;SDS011;6510;51.362;7.370;2023-05-07T04:38:54;0.00;;;0.00;;
12884;SDS011;6510;51.362;7.370;2023-05-07T04:41:19;0.00;;;0.00;;
12884;SDS011;6510;51.362;7.370;2023-05-07T04:43:45;0.00;;;0.00;;
12884;SDS011;6510;51.362;7.370;2023-05-07T04:46:11;0.00;;;0.00;;
12884;SDS011;6510;51.362;7.370;2023-05-07T04:48:37;0.00;;;0.00;;
12884;SDS011;6510;51.362;7.370;2023-05-07T04:51:02;0.10;;;0.10;;
12884;SDS011;6510;51.362;7.370;2023-05-07T04:53:28;0.00;;;0.00;;
12884;SDS011;6510;51.362;7.370;2023-05-07T04:55:57;0.00;;;0.00;;
12884;SDS011;6510;51.362;7.370;2023-05-07T04:58:23;0.00;;;0.00;;
12884;SDS011;6510;51.362;7.370;2023-05-07T05:00:49;0.00;;;0.00;;
12884;SDS011;6510;51.362;7.370;2023-05-07T05:03:14;0.00;;;0.00;;
12884;SDS011;6510;51.362;7.370;2023-05-07T05:05:40;0.00;;;0.00;;
12884;SDS011;6510;51.362;7.370;2023-05-07T05:08:06;0.00;;;0.00;;
12884;SDS011;6510;51.362;7.370;2023-05-07T05:10:31;0.10;;;0.10;;
12884;SDS011;6510;51.362;7.370;2023-05-07T05:12:57;0.00;;;0.00;;
12884;SDS011;6510;51.362;7.370;2023-05-07T05:15:23;0.00;;;0.00;;
12884;SDS011;6510;51.362;7.370;2023-05-07T05:17:48;0.00;;;0.00;;
12884;SDS011;6510;51.362;7.370;2023-05-07T05:20:14;0.00;;;0.00;;
12884;SDS011;6510;51.362;7.370;2023-05-07T05:22:41;0.03;;;0.03;;
12884;SDS011;6510;51.362;7.370;2023-05-07T05:25:07;0.10;;;0.10;;
12884;SDS011;6510;51.362;7.370;2023-05-07T05:27:32;0.10;;;0.10;;
12884;SDS011;6510;51.362;7.370;2023-05-07T05:29:59;0.10;;;0.10;;
12884;SDS011;6510;51.362;7.370;2023-05-07T05:32:24;0.00;;;0.00;;
12884;SDS011;6510;51.362;7.370;2023-05-07T05:34:50;0.00;;;0.00;;
12884;SDS011;6510;51.362;7.370;2023-05-07T05:37:16;0.00;;;0.00;;
12884;SDS011;6510;51.362;7.370;2023-05-07T05:39:41;0.10;;;0.10;;
12884;SDS011;6510;51.362;7.370;2023-05-07T05:42:07;0.00;;;0.00;;
12884;SDS011;6510;51.362;7.370;2023-05-07T05:44:33;0.10;;;0.10;;
12884;SDS011;6510;51.362;7.370;2023-05-07T05:46:58;0.10;;;0.10;;
12884;SDS011;6510;51.362;7.370;2023-05-07T05:49:24;0.03;;;0.03;;
12884;SDS011;6510;51.362;7.370;2023-05-07T05:51:50;0.00;;;0.00;;
12884;SDS011;6510;51.362;7.370;2023-05-07T05:54:16;0.10;;;0.10;;
12884;SDS011;6510;51.362;7.370;2023-05-07T05:56:42;0.10;;;0.10;;
12884;SDS011;6510;51.362;7.370;2023-05-07T05:59:07;0.00;;;0.00;;
12884;SDS011;6510;51.362;7.370;2023-05-07T06:01:33;0.03;;;0.03;;
12884;SDS011;6510;51.362;7.370;2023-05-07T06:03:59;0.10;;;0.10;;
12884;SDS011;6510;51.362;7.370;2023-05-07T06:06:24;0.10;;;0.10;;
12884;SDS011;6510;51.362;7.370;2023-05-07T06:08:50;0.00;;;0.00;;
12884;SDS011;6510;51.362;7.370;2023-05-07T06:11:16;0.10;;;0.10;;
12884;SDS011;6510;51.362;7.370;2023-05-07T06:13:42;0.08;;;0.08;;
12884;SDS011;6510;51.362;7.370;2023-05-07T06:16:07;0.00;;;0.00;;
12884;SDS011;6510;51.362;7.370;2023-05-07T06:18:33;0.10;;;0.10;;
12884;SDS011;6510;51.362;7.370;2023-05-07T06:21:00;0.10;;;0.10;;
12884;SDS011;6510;51.362;7.370;2023-05-07T06:23:26;0.10;;;0.10;;
12884;SDS011;6510;51.362;7.370;2023-05-07T06:25:52;0.20;;;0.20;;
12884;SDS011;6510;51.362;7.370;2023-05-07T06:28:17;0.20;;;0.20;;
12884;SDS011;6510;51.362;7.370;2023-05-07T06:30:43;0.10;;;0.10;;
12884;SDS011;6510;51.362;7.370;2023-05-07T06:33:09;0.10;;;0.10;;
12884;SDS011;6510;51.362;7.370;2023-05-07T06:35:34;0.10;;;0.10;;
12884;SDS011;6510;51.362;7.370;2023-05-07T06:38:00;0.10;;;0.10;;
12884;SDS011;6510;51.362;7.370;2023-05-07T06:40:26;0.10;;;0.10;;
12884;SDS011;6510;51.362;7.370;2023-05-07T06:42:52;0.10;;;0.10;;
12884;SDS011;6510;51.362;7.370;2023-05-07T06:45:18;0.10;;;0.10;;
12884;SDS011;6510;51.362;7.370;2023-05-07T06:47:44;0.10;;;0.10;;
12884;SDS011;6510;51.362;7.370;2023-05-07T06:50:10;0.08;;;0.08;;
12884;SDS011;6510;51.362;7.370;2023-05-07T06:52:36;0.08;;;0.08;;
12884;SDS011;6510;51.362;7.370;2023-05-07T06:55:01;0.10;;;0.10;;
12884;SDS011;6510;51.362;7.370;2023-05-07T06:57:27;0.20;;;0.20;;
12884;SDS011;6510;51.362;7.370;2023-05-07T06:59:53;0.13;;;0.13;;
12884;SDS011;6510;51.362;7.370;2023-05-07T07:02:18;0.10;;;0.10;;
12884;SDS011;6510;51.362;7.370;2023-05-07T07:04:44;0.13;;;0.13;;
12884;SDS011;6510;51.362;7.370;2023-05-07T07:07:10;0.17;;;0.17;;
12884;SDS011;6510;51.362;7.370;2023-05-07T07:09:35;0.10;;;0.10;;
12884;SDS011;6510;51.362;7.370;2023-05-07T07:12:01;0.10;;;0.10;;
12884;SDS011;6510;51.362;7.370;2023-05-07T07:14:27;0.10;;;0.10;;
12884;SDS011;6510;51.362;7.370;2023-05-07T07:16:52;0.10;;;0.10;;
12884;SDS011;6510;51.362;7.370;2023-05-07T07:19:18;0.10;;;0.10;;
12884;SDS011;6510;51.362;7.370;2023-05-07T07:21:45;0.10;;;0.10;;
12884;SDS011;6510;51.362;7.370;2023-05-07T07:24:11;0.10;;;0.10;;
12884;SDS011;6510;51.362;7.370;2023-05-07T07:26:37;0.08;;;0.08;;
12884;SDS011;6510;51.362;7.370;2023-05-07T07:29:02;0.10;;;0.10;;
12884;SDS011;6510;51.362;7.370;2023-05-07T07:31:28;0.10;;;0.10;;
12884;SDS011;6510;51.362;7.370;2023-05-07T07:33:56;0.10;;;0.10;;
12884;SDS011;6510;51.362;7.370;2023-05-07T07:36:21;0.10;;;0.10;;
12884;SDS011;6510;51.362;7.370;2023-05-07T07:38:47;0.10;;;0.10;;
12884;SDS011;6510;51.362;7.370;2023-05-07T07:41:12;0.10;;;0.10;;
12884;SDS011;6510;51.362;7.370;2023-05-07T07:43:38;0.10;;;0.10;;
12884;SDS011;6510;51.362;7.370;2023-05-07T07:46:03;0.10;;;0.10;;
12884;SDS011;6510;51.362;7.370;2023-05-07T07:48:30;0.10;;;0.10;;
12884;SDS011;6510;51.362;7.370;2023-05-07T07:50:55;0.10;;;0.10;;
12884;SDS011;6510;51.362;7.370;2023-05-07T07:53:21;0.03;;;0.03;;
12884;SDS011;6510;51.362;7.370;2023-05-07T07:55:46;0.15;;;0.15;;
12884;SDS011;6510;51.362;7.370;2023-05-07T07:58:12;0.10;;;0.10;;
12884;SDS011;6510;51.362;7.370;2023-05-07T08:00:38;0.10;;;0.10;;
12884;SDS011;6510;51.362;7.370;2023-05-07T08:03:03;0.10;;;0.10;;
12884;SDS011;6510;51.362;7.370;2023-05-07T08:05:30;0.10;;;0.10;;
12884;SDS011;6510;51.362;7.370;2023-05-07T08:07:55;0.10;;;0.10;;
12884;SDS011;6510;51.362;7.370;2023-05-07T08:10:21;0.13;;;0.13;;
12884;SDS011;6510;51.362;7.370;2023-05-07T08:12:50;0.10;;;0.10;;
12884;SDS011;6510;51.362;7.370;2023-05-07T08:15:16;0.20;;;0.20;;
12884;SDS011;6510;51.362;7.370;2023-05-07T08:17:42;0.10;;;0.10;;
12884;SDS011;6510;51.362;7.370;2023-05-07T08:20:08;0.10;;;0.10;;
12884;SDS011;6510;51.362;7.370;2023-05-07T08:22:34;0.10;;;0.10;;
12884;SDS011;6510;51.362;7.370;2023-05-07T08:25:00;0.20;;;0.20;;
12884;SDS011;6510;51.362;7.370;2023-05-07T08:27:26;0.20;;;0.20;;
12884;SDS011;6510;51.362;7.370;2023-05-07T08:29:52;0.20;;;0.20;;
12884;SDS011;6510;51.362;7.370;2023-05-07T08:32:18;0.30;;;0.30;;
12884;SDS011;6510;51.362;7.370;2023-05-07T08:34:44;0.30;;;0.30;;
12884;SDS011;6510;51.362;7.370;2023-05-07T08:37:09;0.30;;;0.30;;
12884;SDS011;6510;51.362;7.370;2023-05-07T08:39:35;0.22;;;0.22;;
12884;SDS011;6510;51.362;7.370;2023-05-07T08:42:01;0.40;;;0.40;;
12884;SDS011;6510;51.362;7.370;2023-05-07T08:44:29;0.50;;;0.50;;
12884;SDS011;6510;51.362;7.370;2023-05-07T08:46:58;0.30;;;0.30;;
12884;SDS011;6510;51.362;7.370;2023-05-07T08:49:27;0.30;;;0.30;;
12884;SDS011;6510;51.362;7.370;2023-05-07T08:51:53;0.45;;;0.45;;
12884;SDS011;6510;51.362;7.370;2023-05-07T08:54:20;0.30;;;0.30;;
12884;SDS011;6510;51.362;7.370;2023-05-07T08:56:46;0.30;;;0.30;;
12884;SDS011;6510;51.362;7.370;2023-05-07T08:59:12;0.30;;;0.30;;
12884;SDS011;6510;51.362;7.370;2023-05-07T09:01:38;0.30;;;0.30;;
12884;SDS011;6510;51.362;7.370;2023-05-07T09:04:04;0.20;;;0.20;;
12884;SDS011;6510;51.362;7.370;2023-05-07T09:06:31;0.20;;;0.20;;
12884;SDS011;6510;51.362;7.370;2023-05-07T09:08:57;0.20;;;0.20;;
12884;SDS011;6510;51.362;7.370;2023-05-07T09:11:26;0.20;;;0.20;;
12884;SDS011;6510;51.362;7.370;2023-05-07T09:13:55;0.10;;;0.10;;
12884;SDS011;6510;51.362;7.370;2023-05-07T09:16:23;0.20;;;0.20;;
12884;SDS011;6510;51.362;7.370;2023-05-07T09:18:51;0.20;;;0.20;;
12884;SDS011;6510;51.362;7.370;2023-05-07T09:21:20;0.20;;;0.20;;
12884;SDS011;6510;51.362;7.370;2023-05-07T09:23:48;0.20;;;0.20;;
12884;SDS011;6510;51.362;7.370;2023-05-07T09:26:15;0.30;;;0.30;;
12884;SDS011;6510;51.362;7.370;2023-05-07T09:28:41;0.40;;;0.40;;
12884;SDS011;6510;51.362;7.370;2023-05-07T09:31:07;0.30;;;0.30;;
12884;SDS011;6510;51.362;7.370;2023-05-07T09:33:34;0.35;;;0.35;;
12884;SDS011;6510;51.362;7.370;2023-05-07T09:36:03;0.40;;;0.40;;
12884;SDS011;6510;51.362;7.370;2023-05-07T09:38:31;0.50;;;0.50;;
12884;SDS011;6510;51.362;7.370;2023-05-07T09:41:05;0.52;;;0.52;;
12884;SDS011;6510;51.362;7.370;2023-05-07T09:43:35;0.50;;;0.50;;
12884;SDS011;6510;51.362;7.370;2023-05-07T09:46:03;0.70;;;0.70;;
12884;SDS011;6510;51.362;7.370;2023-05-07T09:48:32;0.63;;;0.63;;
12884;SDS011;6510;51.362;7.370;2023-05-07T09:51:02;0.70;;;0.70;;
12884;SDS011;6510;51.362;7.370;2023-05-07T09:53:31;0.65;;;0.65;;
12884;SDS011;6510;51.362;7.370;2023-05-07T09:55:58;0.50;;;0.50;;
12884;SDS011;6510;51.362;7.370;2023-05-07T09:58:25;0.45;;;0.45;;
12884;SDS011;6510;51.362;7.370;2023-05-07T10:00:51;0.30;;;0.30;;
12884;SDS011;6510;51.362;7.370;2023-05-07T10:03:18;0.30;;;0.30;;
12884;SDS011;6510;51.362;7.370;2023-05-07T10:05:45;0.30;;;0.30;;
12884;SDS011;6510;51.362;7.370;2023-05-07T10:08:12;0.30;;;0.30;;
12884;SDS011;6510;51.362;7.370;2023-05-07T10:10:39;0.28;;;0.28;;
12884;SDS011;6510;51.362;7.370;2023-05-07T10:13:05;0.30;;;0.30;;
12884;SDS011;6510;51.362;7.370;2023-05-07T10:15:35;0.20;;;0.20;;
12884;SDS011;6510;51.362;7.370;2023-05-07T10:18:02;0.30;;;0.30;;
12884;SDS011;6510;51.362;7.370;2023-05-07T10:20:31;0.20;;;0.20;;
12884;SDS011;6510;51.362;7.370;2023-05-07T10:22:58;0.20;;;0.20;;
12884;SDS011;6510;51.362;7.370;2023-05-07T10:25:31;0.20;;;0.20;;
12884;SDS011;6510;51.362;7.370;2023-05-07T10:27:59;0.20;;;0.20;;
12884;SDS011;6510;51.362;7.370;2023-05-07T10:33:26;0.25;;;0.25;;
12884;SDS011;6510;51.362;7.370;2023-05-07T10:36:00;0.40;;;0.40;;
12884;SDS011;6510;51.362;7.370;2023-05-07T10:38:32;0.40;;;0.40;;
12884;SDS011;6510;51.362;7.370;2023-05-07T10:40:57;0.50;;;0.50;;
12884;SDS011;6510;51.362;7.370;2023-05-07T10:43:23;0.30;;;0.30;;
12884;SDS011;6510;51.362;7.370;2023-05-07T10:46:08;0.40;;;0.40;;
12884;SDS011;6510;51.362;7.370;2023-05-07T10:48:49;0.30;;;0.30;;
12884;SDS011;6510;51.362;7.370;2023-05-07T10:51:28;0.50;;;0.50;;
12884;SDS011;6510;51.362;7.370;2023-05-07T10:56:37;0.50;;;0.50;;
12884;SDS011;6510;51.362;7.370;2023-05-07T11:04:25;0.32;;;0.32;;
12884;SDS011;6510;51.362;7.370;2023-05-07T11:15:04;0.50;;;0.50;;
12884;SDS011;6510;51.362;7.370;2023-05-07T11:17:34;0.50;;;0.50;;
12884;SDS011;6510;51.362;7.370;2023-05-07T11:20:19;0.50;;;0.50;;
12884;SDS011;6510;51.362;7.370;2023-05-07T11:22:45;0.40;;;0.40;;
12884;SDS011;6510;51.362;7.370;2023-05-07T11:25:14;0.50;;;0.50;;
12884;SDS011;6510;51.362;7.370;2023-05-07T11:27:46;0.40;;;0.40;;
12884;SDS011;6510;51.362;7.370;2023-05-07T11:30:18;0.20;;;0.20;;
12884;SDS011;6510;51.362;7.370;2023-05-07T11:32:44;0.20;;;0.20;;
12884;SDS011;6510;51.362;7.370;2023-05-07T11:35:12;0.20;;;0.20;;
12884;SDS011;6510;51.362;7.370;2023-05-07T11:37:40;0.20;;;0.20;;
12884;SDS011;6510;51.362;7.370;2023-05-07T11:40:06;0.20;;;0.20;;
12884;SDS011;6510;51.362;7.370;2023-05-07T11:42:34;0.20;;;0.20;;
12884;SDS011;6510;51.362;7.370;2023-05-07T11:45:02;0.17;;;0.17;;
12884;SDS011;6510;51.362;7.370;2023-05-07T11:47:32;0.20;;;0.20;;
12884;SDS011;6510;51.362;7.370;2023-05-07T11:50:02;0.20;;;0.20;;
12884;SDS011;6510;51.362;7.370;2023-05-07T11:52:30;0.20;;;0.20;;
12884;SDS011;6510;51.362;7.370;2023-05-07T11:54:56;0.10;;;0.10;;
12884;SDS011;6510;51.362;7.370;2023-05-07T11:57:24;0.10;;;0.10;;
12884;SDS011;6510;51.362;7.370;2023-05-07T11:59:57;0.20;;;0.20;;
12884;SDS011;6510;51.362;7.370;2023-05-07T12:02:24;0.10;;;0.10;;
12884;SDS011;6510;51.362;7.370;2023-05-07T12:04:53;0.10;;;0.10;;
12884;SDS011;6510;51.362;7.370;2023-05-07T12:07:23;0.20;;;0.20;;
12884;SDS011;6510;51.362;7.370;2023-05-07T12:09:49;0.20;;;0.20;;
12884;SDS011;6510;51.362;7.370;2023-05-07T12:12:15;0.10;;;0.10;;
12884;SDS011;6510;51.362;7.370;2023-05-07T12:14:42;0.10;;;0.10;;
12884;SDS011;6510;51.362;7.370;2023-05-07T12:17:10;0.10;;;0.10;;
12884;SDS011;6510;51.362;7.370;2023-05-07T12:19:36;0.10;;;0.10;;
12884;SDS011;6510;51.362;7.370;2023-05-07T12:22:08;0.10;;;0.10;;
12884;SDS011;6510;51.362;7.370;2023-05-07T12:24:47;0.20;;;0.20;;
12884;SDS011;6510;51.362;7.370;2023-05-07T12:27:14;0.20;;;0.20;;
12884;SDS011;6510;51.362;7.370;2023-05-07T12:29:47;0.20;;;0.20;;
12884;SDS011;6510;51.362;7.370;2023-05-07T12:32:17;0.13;;;0.13;;
12884;SDS011;6510;51.362;7.370;2023-05-07T12:34:44;0.10;;;0.10;;
12884;SDS011;6510;51.362;7.370;2023-05-07T12:37:10;0.10;;;0.10;;
12884;SDS011;6510;51.362;7.370;2023-05-07T12:39:37;0.20;;;0.20;;
12884;SDS011;6510;51.362;7.370;2023-05-07T12:42:03;0.10;;;0.10;;
12884;SDS011;6510;51.362;7.370;2023-05-07T12:44:29;0.10;;;0.10;;
12884;SDS011;6510;51.362;7.370;2023-05-07T12:47:03;0.10;;;0.10;;
12884;SDS011;6510;51.362;7.370;2023-05-07T12:49:29;0.00;;;0.00;;
12884;SDS011;6510;51.362;7.370;2023-05-07T12:51:55;0.10;;;0.10;;
12884;SDS011;6510;51.362;7.370;2023-05-07T12:54:28;0.10;;;0.10;;
12884;SDS011;6510;51.362;7.370;2023-05-07T12:57:13;0.00;;;0.00;;
12884;SDS011;6510;51.362;7.370;2023-05-07T12:59:41;0.10;;;0.10;;
12884;SDS011;6510;51.362;7.370;2023-05-07T13:02:07;0.10;;;0.10;;
12884;SDS011;6510;51.362;7.370;2023-05-07T13:04:34;0.10;;;0.10;;
12884;SDS011;6510;51.362;7.370;2023-05-07T13:07:00;0.10;;;0.10;;
12884;SDS011;6510;51.362;7.370;2023-05-07T13:09:27;0.10;;;0.10;;
12884;SDS011;6510;51.362;7.370;2023-05-07T13:11:56;0.00;;;0.00;;
12884;SDS011;6510;51.362;7.370;2023-05-07T13:14:25;0.10;;;0.10;;
12884;SDS011;6510;51.362;7.370;2023-05-07T13:16:50;0.00;;;0.00;;
12884;SDS011;6510;51.362;7.370;2023-05-07T13:19:16;0.00;;;0.00;;
12884;SDS011;6510;51.362;7.370;2023-05-07T13:21:42;0.10;;;0.10;;
12884;SDS011;6510;51.362;7.370;2023-05-07T13:24:08;0.10;;;0.10;;
12884;SDS011;6510;51.362;7.370;2023-05-07T13:26:33;0.10;;;0.10;;
12884;SDS011;6510;51.362;7.370;2023-05-07T13:28:59;0.10;;;0.10;;
12884;SDS011;6510;51.362;7.370;2023-05-07T13:31:25;0.10;;;0.10;;
12884;SDS011;6510;51.362;7.370;2023-05-07T13:33:50;0.10;;;0.10;;
12884;SDS011;6510;51.362;7.370;2023-05-07T13:36:17;0.10;;;0.10;;
12884;SDS011;6510;51.362;7.370;2023-05-07T13:38:43;0.10;;;0.10;;
12884;SDS011;6510;51.362;7.370;2023-05-07T13:41:08;0.10;;;0.10;;
12884;SDS011;6510;51.362;7.370;2023-05-07T13:43:34;0.10;;;0.10;;
12884;SDS011;6510;51.362;7.370;2023-05-07T13:46:00;0.00;;;0.00;;
12884;SDS011;6510;51.362;7.370;2023-05-07T13:48:26;0.10;;;0.10;;
12884;SDS011;6510;51.362;7.370;2023-05-07T13:50:53;0.00;;;0.00;;
12884;SDS011;6510;51.362;7.370;2023-05-07T13:53:19;0.10;;;0.10;;
12884;SDS011;6510;51.362;7.370;2023-05-07T13:55:44;0.00;;;0.00;;
12884;SDS011;6510;51.362;7.370;2023-05-07T13:58:10;0.10;;;0.10;;
12884;SDS011;6510;51.362;7.370;2023-05-07T14:00:36;0.10;;;0.10;;
12884;SDS011;6510;51.362;7.370;2023-05-07T14:03:02;0.10;;;0.10;;
12884;SDS011;6510;51.362;7.370;2023-05-07T14:05:29;0.03;;;0.03;;
12884;SDS011;6510;51.362;7.370;2023-05-07T14:07:56;0.10;;;0.10;;
12884;SDS011;6510;51.362;7.370;2023-05-07T14:10:22;0.00;;;0.00;;
12884;SDS011;6510;51.362;7.370;2023-05-07T14:12:48;0.10;;;0.10;;
12884;SDS011;6510;51.362;7.370;2023-05-07T14:15:14;0.10;;;0.10;;
12884;SDS011;6510;51.362;7.370;2023-05-07T14:17:41;0.10;;;0.10;;
12884;SDS011;6510;51.362;7.370;2023-05-07T14:20:07;0.10;;;0.10;;
12884;SDS011;6510;51.362;7.370;2023-05-07T14:22:33;0.03;;;0.03;;
12884;SDS011;6510;51.362;7.370;2023-05-07T14:24:59;0.10;;;0.10;;
12884;SDS011;6510;51.362;7.370;2023-05-07T14:27:24;0.10;;;0.10;;
12884;SDS011;6510;51.362;7.370;2023-05-07T14:29:50;0.10;;;0.10;;
12884;SDS011;6510;51.362;7.370;2023-05-07T14:32:18;0.10;;;0.10;;
12884;SDS011;6510;51.362;7.370;2023-05-07T14:34:45;0.10;;;0.10;;
12884;SDS011;6510;51.362;7.370;2023-05-07T14:37:12;0.10;;;0.10;;
12884;SDS011;6510;51.362;7.370;2023-05-07T14:39:38;0.00;;;0.00;;
12884;SDS011;6510;51.362;7.370;2023-05-07T14:42:04;0.10;;;0.10;;
12884;SDS011;6510;51.362;7.370;2023-05-07T14:44:30;0.10;;;0.10;;
12884;SDS011;6510;51.362;7.370;2023-05-07T14:46:56;0.10;;;0.10;;
12884;SDS011;6510;51.362;7.370;2023-05-07T14:49:22;0.10;;;0.10;;
12884;SDS011;6510;51.362;7.370;2023-05-07T14:51:48;0.10;;;0.10;;
12884;SDS011;6510;51.362;7.370;2023-05-07T14:54:14;0.10;;;0.10;;
12884;SDS011;6510;51.362;7.370;2023-05-07T14:56:40;0.10;;;0.10;;
12884;SDS011;6510;51.362;7.370;2023-05-07T14:59:07;0.10;;;0.10;;
12884;SDS011;6510;51.362;7.370;2023-05-07T15:01:34;0.10;;;0.10;;
12884;SDS011;6510;51.362;7.370;2023-05-07T15:04:00;0.10;;;0.10;;
12884;SDS011;6510;51.362;7.370;2023-05-07T15:06:27;0.00;;;0.00;;
12884;SDS011;6510;51.362;7.370;2023-05-07T15:08:54;0.10;;;0.10;;
12884;SDS011;6510;51.362;7.370;2023-05-07T15:11:19;0.10;;;0.10;;
12884;SDS011;6510;51.362;7.370;2023-05-07T15:13:45;0.10;;;0.10;;
12884;SDS011;6510;51.362;7.370;2023-05-07T15:16:11;0.00;;;0.00;;
12884;SDS011;6510;51.362;7.370;2023-05-07T15:18:36;0.10;;;0.10;;